Krebs, Oklahoma
Current Conditions -  °F | °C
As of 12:53 PM on Friday 24 Oct 2014 (Local Time) from KMLC Reporting Station
Scattered Clouds Scattered Clouds  
Wind Chill: 25°   Ceiling: Unl
Heat Index: 26°   Visibility: 10mi
Dew Point: 14°   Wind: 5mph
Humidity: 50%   Direction: NA
Pressure: 30.13"   Gusts: 17mph
Location:  34.93°N, 95.72°W
Report Text: KMLC 241753Z AUTO VRB04G15KT 10SM SCT110 25/14 A3013 RMK AO2 SLP197 T02500139 10250 20122 58011
Loading
Personal Weather Stations






























Interactive Weather Map
Tropical Storm Tracking
New forecast layout! Learn more

10-Day Weather Forecast

Advertisements
Track Severe Weather on mobile